Terminal Aerodrome Forecast
Issued by NWS Twin Cities, MN

Home | Current Version | Previous Version | Text Only | Print | Product List | Glossary On
Versions: 1 2 3 4 5 6 7 8 9 10 11 12 13 14 15 16 17 18 19 20 21 22 23 24 25 26
000
FTUS43 KMPX 241700
TAFMSP
TAF
KMSP 241736Z 2418/2524 08008KT 3SM -RA BR BKN009 OVC012
      TEMPO 2418/2419 1 1/2SM -RA BR OVC007
     FM242000 05004KT 5SM -RA BR SCT009 OVC012
     FM242200 33005KT P6SM BKN015 OVC025
     FM250200 30005KT P6SM SCT020 BKN035
     FM251000 27005KT 6SM BR SCT040
     FM251300 28007KT P6SM SCT060
     FM251800 29013KT P6SM BKN060=

USA.gov is the U.S. government's official web portal to all federal, state and local government web resources and services.